createdAt,value
2022-10-05T00:01:53.846Z,5.10
2022-10-05T00:05:02.046Z,5.10
2022-10-05T00:08:19.654Z,5.00
2022-10-05T00:11:28.254Z,5.10
2022-10-05T00:14:38.846Z,5.10
2022-10-05T00:17:48.309Z,5.40
2022-10-05T00:20:56.398Z,5.70
2022-10-05T00:24:11.364Z,5.30
2022-10-05T00:27:24.078Z,5.40
2022-10-05T00:30:38.724Z,5.30
2022-10-05T00:33:46.907Z,5.00
2022-10-05T00:36:54.971Z,5.60
2022-10-05T00:40:03.121Z,5.90
2022-10-05T00:43:30.429Z,5.80
2022-10-05T00:46:53.125Z,5.90
2022-10-05T00:50:32.521Z,5.90
2022-10-05T00:53:49.503Z,5.40
2022-10-05T00:57:34.378Z,4.90
2022-10-05T01:01:00.544Z,5.10
2022-10-05T01:04:21.021Z,5.10
2022-10-05T01:07:41.842Z,5.20
2022-10-05T01:11:03.570Z,5.30
2022-10-05T01:14:23.062Z,5.70
2022-10-05T01:17:40.685Z,5.50
2022-10-05T01:21:04.738Z,5.70
2022-10-05T01:24:49.547Z,5.60
2022-10-05T01:28:08.176Z,5.00
2022-10-05T01:31:27.728Z,5.20
2022-10-05T01:34:42.259Z,5.60
2022-10-05T01:38:06.275Z,6.00
2022-10-05T01:41:31.331Z,5.90
2022-10-05T01:44:52.272Z,6.10
2022-10-05T01:48:10.116Z,5.90
2022-10-05T01:51:29.705Z,5.10
2022-10-05T01:55:01.219Z,5.10
2022-10-05T01:58:24.757Z,5.40
2022-10-05T02:01:46.384Z,5.60
2022-10-05T02:05:02.559Z,5.50
2022-10-05T02:08:23.130Z,5.60
2022-10-05T02:11:31.120Z,5.30
2022-10-05T02:14:43.989Z,5.50
2022-10-05T02:17:58.227Z,6.00
2022-10-05T02:21:07.333Z,5.70
2022-10-05T02:24:23.817Z,5.70
2022-10-05T02:27:42.560Z,5.50
2022-10-05T02:30:56.880Z,5.80
2022-10-05T02:34:30.871Z,5.70
2022-10-05T02:37:56.078Z,5.90
2022-10-05T02:41:13.331Z,5.60
2022-10-05T02:44:35.069Z,6.20
2022-10-05T02:47:53.887Z,5.60
2022-10-05T02:51:14.927Z,6.30
2022-10-05T02:54:42.658Z,6.00
2022-10-05T02:57:59.644Z,6.10
2022-10-05T03:01:17.205Z,6.20
2022-10-05T03:04:40.120Z,6.00
2022-10-05T03:08:00.500Z,6.30
2022-10-05T03:11:19.630Z,7.20
2022-10-05T03:14:40.880Z,7.40
2022-10-05T03:18:01.329Z,7.40
2022-10-05T03:21:24.863Z,7.90
2022-10-05T03:25:02.333Z,7.40
2022-10-05T03:28:20.587Z,7.80
2022-10-05T03:31:42.157Z,7.80
2022-10-05T03:34:58.311Z,7.40
2022-10-05T03:38:18.005Z,7.70
2022-10-05T03:41:38.445Z,8.60
2022-10-05T03:44:56.636Z,8.50
2022-10-05T03:48:11.524Z,8.20
2022-10-05T03:51:31.714Z,8.20
2022-10-05T03:54:45.976Z,8.00
2022-10-05T03:57:58.680Z,8.20
2022-10-05T04:01:13.590Z,8.70
2022-10-05T04:04:36.357Z,8.80
2022-10-05T04:07:52.504Z,8.30
2022-10-05T04:11:06.226Z,7.90
2022-10-05T04:14:20.537Z,8.40
2022-10-05T04:17:40.846Z,8.60
2022-10-05T04:20:54.167Z,7.90
2022-10-05T04:24:11.150Z,8.80
2022-10-05T04:27:23.499Z,8.70
2022-10-05T04:30:35.141Z,8.70
2022-10-05T04:33:44.527Z,8.60
2022-10-05T04:37:02.057Z,8.00
2022-10-05T04:40:30.195Z,7.50
2022-10-05T04:43:53.809Z,7.40
2022-10-05T04:47:23.895Z,7.60
2022-10-05T04:50:46.282Z,7.20
2022-10-05T04:54:06.835Z,6.50
2022-10-05T04:57:23.307Z,6.50
2022-10-05T05:00:40.312Z,7.20
2022-10-05T05:04:11.376Z,6.80
2022-10-05T05:07:37.808Z,6.90
2022-10-05T05:11:16.192Z,7.10
2022-10-05T05:14:53.369Z,7.00
2022-10-05T05:18:39.251Z,7.00
2022-10-05T05:22:01.752Z,6.60
2022-10-05T05:25:33.224Z,6.30
2022-10-05T05:28:52.303Z,6.40
2022-10-05T05:32:14.410Z,6.50
2022-10-05T05:35:52.507Z,6.40
2022-10-05T05:39:29.111Z,6.40
2022-10-05T05:42:51.822Z,5.80
2022-10-05T05:46:08.188Z,6.60
2022-10-05T05:49:25.432Z,6.50
2022-10-05T05:52:41.228Z,7.30
2022-10-05T05:55:54.296Z,6.40
2022-10-05T05:59:12.814Z,5.40
2022-10-05T06:02:28.195Z,5.10
2022-10-05T06:05:43.816Z,5.00
2022-10-05T06:08:56.196Z,4.90
2022-10-05T06:12:12.612Z,6.30
2022-10-05T06:15:33.968Z,6.30
2022-10-05T06:18:49.409Z,6.10
2022-10-05T06:22:03.752Z,6.10
2022-10-05T06:25:30.217Z,6.20
2022-10-05T06:28:38.412Z,5.50
2022-10-05T06:32:11.381Z,5.10
2022-10-05T06:35:36.522Z,5.10
2022-10-05T06:39:39.087Z,4.90
2022-10-05T06:43:27.948Z,4.90
2022-10-05T06:46:42.261Z,4.60
2022-10-05T06:50:05.160Z,4.50
2022-10-05T06:53:29.574Z,4.30
2022-10-05T06:56:46.235Z,4.30
2022-10-05T07:00:04.028Z,4.70
2022-10-05T07:03:27.821Z,5.80
2022-10-05T07:06:44.963Z,5.90
2022-10-05T07:10:13.911Z,5.50
2022-10-05T07:13:48.867Z,5.10
2022-10-05T07:17:23.164Z,5.00
2022-10-05T07:20:45.639Z,5.50
2022-10-05T07:24:12.820Z,4.90
2022-10-05T07:27:25.423Z,4.70
2022-10-05T07:30:36.686Z,5.20
2022-10-05T07:33:55.888Z,4.40
2022-10-05T07:37:35.928Z,4.50
2022-10-05T07:45:33.745Z,5.40
2022-10-05T07:49:14.925Z,4.50
2022-10-05T07:52:34.951Z,4.40
2022-10-05T07:55:51.655Z,4.70
2022-10-05T07:59:08.022Z,4.20
2022-10-05T08:02:28.441Z,4.10
2022-10-05T08:05:42.269Z,3.90
2022-10-05T08:09:01.229Z,4.50
2022-10-05T08:12:25.718Z,4.70
2022-10-05T08:15:44.320Z,4.10
2022-10-05T08:19:03.869Z,4.20
2022-10-05T08:22:21.685Z,4.20
2022-10-05T08:25:41.691Z,4.60
2022-10-05T08:29:02.701Z,4.70
2022-10-05T08:32:20.152Z,4.80
2022-10-05T08:35:38.138Z,4.50
2022-10-05T08:38:47.297Z,4.80
2022-10-05T08:42:49.350Z,4.30
2022-10-05T08:46:45.319Z,4.50
2022-10-05T08:50:23.690Z,4.40
2022-10-05T08:54:08.895Z,4.00
2022-10-05T08:57:46.643Z,4.00
2022-10-05T09:01:08.057Z,3.90
2022-10-05T09:04:37.226Z,4.00
2022-10-05T09:08:21.489Z,3.60
2022-10-05T09:11:39.103Z,3.60
2022-10-05T09:15:25.549Z,3.80
2022-10-05T09:19:22.896Z,3.70
2022-10-05T09:22:53.020Z,3.90
2022-10-05T09:26:15.611Z,3.70
2022-10-05T09:30:07.400Z,4.00
2022-10-05T09:33:55.945Z,4.30
2022-10-05T09:37:38.068Z,4.10
2022-10-05T09:41:30.025Z,4.00
2022-10-05T09:45:21.935Z,4.40
2022-10-05T09:49:11.461Z,4.10
2022-10-05T09:52:52.200Z,4.30
2022-10-05T09:56:22.651Z,4.70
2022-10-05T10:00:16.516Z,4.40
2022-10-05T10:04:36.530Z,4.60
2022-10-05T10:08:26.889Z,5.20
2022-10-05T10:12:09.044Z,4.90
2022-10-05T10:16:03.184Z,4.60
2022-10-05T10:19:35.399Z,4.50
2022-10-05T10:23:23.839Z,4.50
2022-10-05T10:27:17.750Z,5.50
2022-10-05T10:30:58.041Z,5.10
2022-10-05T10:34:40.601Z,4.90
2022-10-05T10:38:34.261Z,5.30
2022-10-05T10:42:37.280Z,5.00
2022-10-05T10:46:01.495Z,4.60
2022-10-05T10:49:38.012Z,4.70
2022-10-05T10:53:10.684Z,4.70
2022-10-05T10:56:48.690Z,5.10
2022-10-05T11:00:34.928Z,5.50
2022-10-05T11:04:29.443Z,4.10
2022-10-05T11:08:22.105Z,4.10
2022-10-05T11:12:22.114Z,3.80
2022-10-05T11:16:18.738Z,3.70
2022-10-05T11:20:04.718Z,4.10
2022-10-05T11:24:15.723Z,4.40
2022-10-05T11:27:59.389Z,4.40
2022-10-05T11:32:05.544Z,4.00
2022-10-05T11:36:05.962Z,4.70
2022-10-05T11:39:45.071Z,3.80
2022-10-05T11:43:34.498Z,4.90
2022-10-05T11:46:56.318Z,4.00
2022-10-05T11:50:20.132Z,3.30
2022-10-05T11:53:36.773Z,4.80
2022-10-05T11:56:54.696Z,5.00
2022-10-05T12:00:15.932Z,3.40
2022-10-05T12:03:48.513Z,3.20
2022-10-05T12:07:16.370Z,3.30
2022-10-05T12:10:38.101Z,3.50
2022-10-05T12:13:55.454Z,3.30
2022-10-05T12:17:13.969Z,3.20
2022-10-05T12:20:30.043Z,2.80
2022-10-05T12:23:48.009Z,3.00
2022-10-05T12:27:04.665Z,2.70
2022-10-05T12:30:26.623Z,3.00
2022-10-05T12:33:43.301Z,2.70
2022-10-05T12:37:06.231Z,2.50
2022-10-05T12:40:29.820Z,2.50
2022-10-05T12:43:55.186Z,2.60
2022-10-05T12:47:21.316Z,2.60
2022-10-05T12:50:42.220Z,2.60
2022-10-05T12:54:01.714Z,2.40
2022-10-05T12:57:28.063Z,2.40
2022-10-05T13:00:41.019Z,2.50
2022-10-05T13:04:00.636Z,2.50
2022-10-05T13:10:40.831Z,2.40
2022-10-05T13:14:09.747Z,2.70
2022-10-05T13:17:27.007Z,2.50
2022-10-05T13:20:45.183Z,3.40
2022-10-05T13:24:06.584Z,2.60
2022-10-05T13:27:23.636Z,2.30
2022-10-05T13:30:32.947Z,2.40
2022-10-05T13:34:15.917Z,2.40
2022-10-05T13:37:35.589Z,2.40
2022-10-05T13:40:54.114Z,2.50
2022-10-05T13:44:20.376Z,2.70
2022-10-05T13:47:41.555Z,2.30
2022-10-05T13:51:05.390Z,2.50
2022-10-05T13:54:25.166Z,2.40
2022-10-05T13:57:58.968Z,2.50
2022-10-05T14:01:18.330Z,2.50
2022-10-05T14:04:29.827Z,2.60
2022-10-05T14:07:50.663Z,2.30
2022-10-05T14:10:59.151Z,2.40
2022-10-05T14:14:18.932Z,2.50
2022-10-05T14:17:46.432Z,2.50
2022-10-05T14:21:17.227Z,2.60
2022-10-05T14:24:43.743Z,2.70
2022-10-05T14:28:03.499Z,2.40
2022-10-05T14:31:28.889Z,3.60
2022-10-05T14:34:45.071Z,5.20
2022-10-05T14:38:00.356Z,2.70
2022-10-05T14:41:21.882Z,3.00
2022-10-05T14:44:35.934Z,3.00
2022-10-05T14:47:53.759Z,2.80
2022-10-05T14:51:03.613Z,2.40
2022-10-05T14:57:52.151Z,2.40
2022-10-05T15:01:14.672Z,2.60
2022-10-05T15:04:43.054Z,2.90
2022-10-05T15:07:58.409Z,2.60
2022-10-05T15:11:15.201Z,2.60
2022-10-05T15:14:26.611Z,2.50
2022-10-05T15:17:47.737Z,2.70
2022-10-05T15:21:06.273Z,2.70
2022-10-05T15:24:22.601Z,3.00
2022-10-05T15:27:47.584Z,2.90
2022-10-05T15:31:03.302Z,2.90
2022-10-05T15:34:23.261Z,3.00
2022-10-05T15:37:42.334Z,3.20
2022-10-05T15:41:05.265Z,3.00
2022-10-05T15:44:26.184Z,3.00
2022-10-05T15:47:53.889Z,2.80
2022-10-05T15:51:15.531Z,2.70
2022-10-05T15:55:06.200Z,2.50
2022-10-05T15:58:41.448Z,2.90
2022-10-05T16:02:01.177Z,2.60
2022-10-05T16:09:11.931Z,2.80
2022-10-05T16:12:36.730Z,3.00
2022-10-05T16:15:50.698Z,3.00
2022-10-05T16:19:11.286Z,3.10
2022-10-05T16:22:27.596Z,3.10
2022-10-05T16:25:55.156Z,3.10
2022-10-05T16:29:12.576Z,3.50
2022-10-05T16:32:26.522Z,3.70
2022-10-05T16:35:45.997Z,3.10
2022-10-05T16:39:06.721Z,3.40
2022-10-05T16:42:43.375Z,3.60
2022-10-05T16:46:12.682Z,4.10
2022-10-05T16:49:40.259Z,4.10
2022-10-05T16:52:58.201Z,3.80
2022-10-05T16:56:13.063Z,4.10
2022-10-05T17:00:16.111Z,4.10
2022-10-05T17:03:41.919Z,4.00
2022-10-05T17:07:24.634Z,4.20
2022-10-05T17:11:04.479Z,3.80
2022-10-05T17:14:29.072Z,3.60
2022-10-05T17:18:00.438Z,3.60
2022-10-05T17:21:15.837Z,3.50
2022-10-05T17:24:41.930Z,4.00
2022-10-05T17:28:00.625Z,3.50
2022-10-05T17:31:20.153Z,3.60
2022-10-05T17:34:34.904Z,3.40
2022-10-05T17:37:47.449Z,3.80
2022-10-05T17:41:20.224Z,4.00
2022-10-05T17:44:30.992Z,4.20
2022-10-05T17:48:00.227Z,3.70
2022-10-05T17:51:58.410Z,3.50
2022-10-05T17:55:47.181Z,3.30
2022-10-05T17:59:04.582Z,3.50
2022-10-05T18:02:26.957Z,3.40
2022-10-05T18:05:35.561Z,3.40
2022-10-05T18:08:43.886Z,3.60
2022-10-05T18:12:26.618Z,3.50
2022-10-05T18:15:50.350Z,3.40
2022-10-05T18:19:03.318Z,3.50
2022-10-05T18:22:32.400Z,3.70
2022-10-05T18:25:50.533Z,3.30
2022-10-05T18:29:37.574Z,3.10
2022-10-05T18:33:22.402Z,3.50
2022-10-05T18:37:09.615Z,2.90
2022-10-05T18:40:50.018Z,3.20
2022-10-05T18:44:27.082Z,2.70
2022-10-05T18:47:52.553Z,3.20
2022-10-05T18:51:15.962Z,2.80
2022-10-05T18:54:51.755Z,3.10
2022-10-05T18:58:16.225Z,3.00
2022-10-05T19:01:51.280Z,3.10
2022-10-05T19:05:46.343Z,3.30
2022-10-05T19:09:04.107Z,3.10
2022-10-05T19:12:27.199Z,3.50
2022-10-05T19:15:48.721Z,3.70
2022-10-05T19:19:29.451Z,3.80
2022-10-05T19:23:03.517Z,3.70
2022-10-05T19:26:26.003Z,3.50
2022-10-05T19:30:00.385Z,3.80
2022-10-05T19:33:38.948Z,3.30
2022-10-05T19:37:05.035Z,3.30
2022-10-05T19:40:24.650Z,3.50
2022-10-05T19:43:54.736Z,4.10
2022-10-05T19:47:17.613Z,4.20
2022-10-05T19:50:33.093Z,4.60
2022-10-05T19:53:50.280Z,4.70
2022-10-05T19:57:00.132Z,4.70
2022-10-05T20:00:16.908Z,4.70
2022-10-05T20:03:30.629Z,5.30
2022-10-05T20:06:39.756Z,5.00
2022-10-05T20:10:00.427Z,5.40
2022-10-05T20:13:20.070Z,5.30
2022-10-05T20:16:52.395Z,7.10
2022-10-05T20:20:38.496Z,6.30
2022-10-05T20:23:46.508Z,5.60
2022-10-05T20:27:05.199Z,5.50
2022-10-05T20:30:17.395Z,5.20
2022-10-05T20:33:28.341Z,5.00
2022-10-05T20:36:36.042Z,5.10
2022-10-05T20:39:45.578Z,4.70
2022-10-05T20:42:53.550Z,4.50
2022-10-05T20:46:02.260Z,4.20
2022-10-05T20:49:11.723Z,4.20
2022-10-05T20:52:19.593Z,4.90
2022-10-05T20:55:32.043Z,4.30
2022-10-05T20:58:39.972Z,4.20
2022-10-05T21:01:49.224Z,4.50
2022-10-05T21:04:57.197Z,4.30
2022-10-05T21:08:07.308Z,4.50
2022-10-05T21:11:15.786Z,4.30
2022-10-05T21:14:24.240Z,4.40
2022-10-05T21:17:32.313Z,4.60
2022-10-05T21:20:40.264Z,4.60
2022-10-05T21:23:51.448Z,4.50
2022-10-05T21:26:59.488Z,4.40
2022-10-05T21:30:08.694Z,5.20
2022-10-05T21:33:16.493Z,5.40
2022-10-05T21:36:25.369Z,5.60
2022-10-05T21:39:33.675Z,5.70
2022-10-05T21:42:41.809Z,5.50
2022-10-05T21:45:50.360Z,5.60
2022-10-05T21:48:58.952Z,5.40
2022-10-05T21:52:08.431Z,6.00
2022-10-05T21:55:16.159Z,5.80
2022-10-05T21:58:28.272Z,5.40
2022-10-05T22:01:37.060Z,5.10
2022-10-05T22:04:44.796Z,5.00
2022-10-05T22:07:54.665Z,5.50
2022-10-05T22:11:09.926Z,4.50
2022-10-05T22:14:19.297Z,4.90
2022-10-05T22:17:31.424Z,4.90
2022-10-05T22:20:39.677Z,4.30
2022-10-05T22:23:49.602Z,4.20
2022-10-05T22:26:57.719Z,4.20
2022-10-05T22:30:06.691Z,4.20
2022-10-05T22:33:14.570Z,3.90
2022-10-05T22:36:23.191Z,4.00
2022-10-05T22:39:31.285Z,4.10
2022-10-05T22:42:41.026Z,4.10
2022-10-05T22:48:55.945Z,3.80
2022-10-05T22:52:03.769Z,4.00
2022-10-05T22:59:47.371Z,4.10
2022-10-05T23:02:55.544Z,3.80
2022-10-05T23:06:05.985Z,3.80
2022-10-05T23:09:13.837Z,4.40
2022-10-05T23:12:22.216Z,4.40
2022-10-05T23:15:30.152Z,4.80
2022-10-05T23:18:38.300Z,5.10
2022-10-05T23:21:46.754Z,5.40
2022-10-05T23:24:55.703Z,4.90
2022-10-05T23:28:04.579Z,5.20
2022-10-05T23:31:12.987Z,5.10
2022-10-05T23:34:20.835Z,5.60
2022-10-05T23:37:29.542Z,5.90
2022-10-05T23:40:37.487Z,5.60
2022-10-05T23:43:45.990Z,5.90
2022-10-05T23:46:53.768Z,5.70
2022-10-05T23:50:01.987Z,5.50
2022-10-05T23:53:09.819Z,5.90
2022-10-05T23:56:17.611Z,5.20
2022-10-05T23:59:25.522Z,5.50
